sensor_id;sensor_type;location;lat;lon;timestamp;temperature;humidity
16578;DHT22;8401;52.528;13.340;2024-01-11T00:01:19;-5.70;99.90
16578;DHT22;8401;52.528;13.340;2024-01-11T00:03:45;-5.80;99.90
16578;DHT22;8401;52.528;13.340;2024-01-11T00:06:11;-5.80;99.90
16578;DHT22;8401;52.528;13.340;2024-01-11T00:08:37;-5.80;99.90
16578;DHT22;8401;52.528;13.340;2024-01-11T00:11:02;-5.80;99.90
16578;DHT22;8401;52.528;13.340;2024-01-11T00:13:29;-5.70;99.90
16578;DHT22;8401;52.528;13.340;2024-01-11T00:15:54;-5.70;99.90
16578;DHT22;8401;52.528;13.340;2024-01-11T00:18:20;-5.80;99.90
16578;DHT22;8401;52.528;13.340;2024-01-11T00:20:46;-5.90;99.90
16578;DHT22;8401;52.528;13.340;2024-01-11T00:23:11;-5.90;99.90
16578;DHT22;8401;52.528;13.340;2024-01-11T00:25:37;-6.00;99.90
16578;DHT22;8401;52.528;13.340;2024-01-11T00:28:03;-6.00;99.90
16578;DHT22;8401;52.528;13.340;2024-01-11T00:30:28;-5.80;99.90
16578;DHT22;8401;52.528;13.340;2024-01-11T00:32:55;-5.90;99.90
16578;DHT22;8401;52.528;13.340;2024-01-11T00:35:20;-6.00;99.90
16578;DHT22;8401;52.528;13.340;2024-01-11T00:37:46;-6.00;99.90
16578;DHT22;8401;52.528;13.340;2024-01-11T00:40:12;-5.90;99.90
16578;DHT22;8401;52.528;13.340;2024-01-11T00:42:37;-6.00;99.90
16578;DHT22;8401;52.528;13.340;2024-01-11T00:45:03;-6.00;99.90
16578;DHT22;8401;52.528;13.340;2024-01-11T00:47:29;-5.90;99.90
16578;DHT22;8401;52.528;13.340;2024-01-11T00:49:55;-5.90;99.90
16578;DHT22;8401;52.528;13.340;2024-01-11T00:52:20;-6.00;99.90
16578;DHT22;8401;52.528;13.340;2024-01-11T00:54:46;-6.10;99.90
16578;DHT22;8401;52.528;13.340;2024-01-11T00:57:12;-6.20;99.90
16578;DHT22;8401;52.528;13.340;2024-01-11T00:59:40;-6.10;99.90
16578;DHT22;8401;52.528;13.340;2024-01-11T01:02:05;-6.20;99.90
16578;DHT22;8401;52.528;13.340;2024-01-11T01:04:31;-6.20;99.90
16578;DHT22;8401;52.528;13.340;2024-01-11T01:06:57;-6.20;99.90
16578;DHT22;8401;52.528;13.340;2024-01-11T01:09:22;-6.20;99.90
16578;DHT22;8401;52.528;13.340;2024-01-11T01:11:48;-6.30;99.90
16578;DHT22;8401;52.528;13.340;2024-01-11T01:14:14;-6.20;99.90
16578;DHT22;8401;52.528;13.340;2024-01-11T01:16:39;-6.10;99.90
16578;DHT22;8401;52.528;13.340;2024-01-11T01:19:05;-6.00;99.90
16578;DHT22;8401;52.528;13.340;2024-01-11T01:21:31;-6.00;99.90
16578;DHT22;8401;52.528;13.340;2024-01-11T01:23:56;-6.00;99.90
16578;DHT22;8401;52.528;13.340;2024-01-11T01:26:22;-6.00;99.90
16578;DHT22;8401;52.528;13.340;2024-01-11T01:28:47;-6.00;99.90
16578;DHT22;8401;52.528;13.340;2024-01-11T01:31:13;-5.90;99.90
16578;DHT22;8401;52.528;13.340;2024-01-11T01:33:40;-5.90;99.90
16578;DHT22;8401;52.528;13.340;2024-01-11T01:36:09;-5.80;99.90
16578;DHT22;8401;52.528;13.340;2024-01-11T01:38:35;-5.70;99.90
16578;DHT22;8401;52.528;13.340;2024-01-11T01:41:00;-5.80;99.90
16578;DHT22;8401;52.528;13.340;2024-01-11T01:43:26;-5.80;99.90
16578;DHT22;8401;52.528;13.340;2024-01-11T01:45:52;-5.70;99.90
16578;DHT22;8401;52.528;13.340;2024-01-11T01:48:18;-5.60;99.90
16578;DHT22;8401;52.528;13.340;2024-01-11T01:50:45;-5.50;99.90
16578;DHT22;8401;52.528;13.340;2024-01-11T01:53:17;-5.50;99.90
16578;DHT22;8401;52.528;13.340;2024-01-11T01:55:44;-5.60;99.90
16578;DHT22;8401;52.528;13.340;2024-01-11T01:58:09;-5.60;99.90
16578;DHT22;8401;52.528;13.340;2024-01-11T02:00:35;-5.70;99.90
16578;DHT22;8401;52.528;13.340;2024-01-11T02:03:01;-5.80;99.90
16578;DHT22;8401;52.528;13.340;2024-01-11T02:05:27;-5.70;99.90
16578;DHT22;8401;52.528;13.340;2024-01-11T02:07:52;-5.70;99.90
16578;DHT22;8401;52.528;13.340;2024-01-11T02:10:19;-5.70;99.90
16578;DHT22;8401;52.528;13.340;2024-01-11T02:12:44;-5.70;99.90
16578;DHT22;8401;52.528;13.340;2024-01-11T02:15:10;-5.60;99.90
16578;DHT22;8401;52.528;13.340;2024-01-11T02:17:36;-5.50;99.90
16578;DHT22;8401;52.528;13.340;2024-01-11T02:20:02;-5.70;99.90
16578;DHT22;8401;52.528;13.340;2024-01-11T02:22:32;-5.90;99.90
16578;DHT22;8401;52.528;13.340;2024-01-11T02:24:59;-5.90;99.90
16578;DHT22;8401;52.528;13.340;2024-01-11T02:27:24;-6.00;99.90
16578;DHT22;8401;52.528;13.340;2024-01-11T02:29:50;-6.00;99.90
16578;DHT22;8401;52.528;13.340;2024-01-11T02:32:16;-6.00;99.90
16578;DHT22;8401;52.528;13.340;2024-01-11T02:34:41;-6.00;99.90
16578;DHT22;8401;52.528;13.340;2024-01-11T02:37:08;-6.00;99.90
16578;DHT22;8401;52.528;13.340;2024-01-11T02:39:33;-5.90;99.90
16578;DHT22;8401;52.528;13.340;2024-01-11T02:42:00;-5.90;99.90
16578;DHT22;8401;52.528;13.340;2024-01-11T02:44:25;-5.80;99.90
16578;DHT22;8401;52.528;13.340;2024-01-11T02:46:51;-5.80;99.90
16578;DHT22;8401;52.528;13.340;2024-01-11T02:49:17;-5.90;99.90
16578;DHT22;8401;52.528;13.340;2024-01-11T02:51:42;-5.90;99.90
16578;DHT22;8401;52.528;13.340;2024-01-11T02:54:08;-5.90;99.90
16578;DHT22;8401;52.528;13.340;2024-01-11T02:56:33;-5.90;99.90
16578;DHT22;8401;52.528;13.340;2024-01-11T02:58:59;-5.80;99.90
16578;DHT22;8401;52.528;13.340;2024-01-11T03:01:25;-5.90;99.90
16578;DHT22;8401;52.528;13.340;2024-01-11T03:03:50;-5.80;99.90
16578;DHT22;8401;52.528;13.340;2024-01-11T03:06:16;-5.90;99.90
16578;DHT22;8401;52.528;13.340;2024-01-11T03:08:49;-5.90;99.90
16578;DHT22;8401;52.528;13.340;2024-01-11T03:11:15;-5.80;99.90
16578;DHT22;8401;52.528;13.340;2024-01-11T03:13:42;-5.80;99.90
16578;DHT22;8401;52.528;13.340;2024-01-11T03:16:07;-5.80;99.90
16578;DHT22;8401;52.528;13.340;2024-01-11T03:18:33;-5.80;99.90
16578;DHT22;8401;52.528;13.340;2024-01-11T03:20:59;-5.90;99.90
16578;DHT22;8401;52.528;13.340;2024-01-11T03:23:24;-5.80;99.90
16578;DHT22;8401;52.528;13.340;2024-01-11T03:25:50;-5.90;99.90
16578;DHT22;8401;52.528;13.340;2024-01-11T03:28:15;-5.80;99.90
16578;DHT22;8401;52.528;13.340;2024-01-11T03:30:41;-5.80;99.90
16578;DHT22;8401;52.528;13.340;2024-01-11T03:33:07;-5.80;99.90
16578;DHT22;8401;52.528;13.340;2024-01-11T03:35:32;-5.70;99.90
16578;DHT22;8401;52.528;13.340;2024-01-11T03:37:58;-5.70;99.90
16578;DHT22;8401;52.528;13.340;2024-01-11T03:40:23;-5.60;99.90
16578;DHT22;8401;52.528;13.340;2024-01-11T03:42:49;-5.60;99.90
16578;DHT22;8401;52.528;13.340;2024-01-11T03:45:18;-5.70;99.90
16578;DHT22;8401;52.528;13.340;2024-01-11T03:47:45;-5.70;99.90
16578;DHT22;8401;52.528;13.340;2024-01-11T03:50:10;-5.70;99.90
16578;DHT22;8401;52.528;13.340;2024-01-11T03:52:36;-5.60;99.90
16578;DHT22;8401;52.528;13.340;2024-01-11T03:55:02;-5.60;99.90
16578;DHT22;8401;52.528;13.340;2024-01-11T03:57:27;-5.50;99.90
16578;DHT22;8401;52.528;13.340;2024-01-11T03:59:53;-5.40;99.90
16578;DHT22;8401;52.528;13.340;2024-01-11T04:02:19;-5.40;99.90
16578;DHT22;8401;52.528;13.340;2024-01-11T04:04:45;-5.30;99.90
16578;DHT22;8401;52.528;13.340;2024-01-11T04:07:10;-5.30;99.90
16578;DHT22;8401;52.528;13.340;2024-01-11T04:09:39;-5.30;99.90
16578;DHT22;8401;52.528;13.340;2024-01-11T04:12:05;-5.20;99.90
16578;DHT22;8401;52.528;13.340;2024-01-11T04:14:31;-5.20;99.90
16578;DHT22;8401;52.528;13.340;2024-01-11T04:16:57;-5.10;99.90
16578;DHT22;8401;52.528;13.340;2024-01-11T04:19:22;-5.00;99.90
16578;DHT22;8401;52.528;13.340;2024-01-11T04:21:48;-5.00;99.90
16578;DHT22;8401;52.528;13.340;2024-01-11T04:24:14;-4.90;99.90
16578;DHT22;8401;52.528;13.340;2024-01-11T04:26:39;-4.80;99.90
16578;DHT22;8401;52.528;13.340;2024-01-11T04:29:05;-4.70;99.90
16578;DHT22;8401;52.528;13.340;2024-01-11T04:31:30;-4.50;99.90
16578;DHT22;8401;52.528;13.340;2024-01-11T04:33:56;-4.60;99.90
16578;DHT22;8401;52.528;13.340;2024-01-11T04:36:22;-4.50;99.90
16578;DHT22;8401;52.528;13.340;2024-01-11T04:38:47;-4.50;99.90
16578;DHT22;8401;52.528;13.340;2024-01-11T04:41:14;-4.50;99.90
16578;DHT22;8401;52.528;13.340;2024-01-11T04:43:40;-4.50;99.90
16578;DHT22;8401;52.528;13.340;2024-01-11T04:46:16;-4.40;99.90
16578;DHT22;8401;52.528;13.340;2024-01-11T04:48:42;-4.30;99.90
16578;DHT22;8401;52.528;13.340;2024-01-11T04:51:07;-4.30;99.90
16578;DHT22;8401;52.528;13.340;2024-01-11T04:53:35;-4.30;99.90
16578;DHT22;8401;52.528;13.340;2024-01-11T04:56:01;-4.20;99.90
16578;DHT22;8401;52.528;13.340;2024-01-11T04:58:26;-4.30;99.90
16578;DHT22;8401;52.528;13.340;2024-01-11T05:00:52;-4.20;99.90
16578;DHT22;8401;52.528;13.340;2024-01-11T05:03:18;-4.30;99.90
16578;DHT22;8401;52.528;13.340;2024-01-11T05:05:43;-4.20;99.90
16578;DHT22;8401;52.528;13.340;2024-01-11T05:08:09;-4.20;99.90
16578;DHT22;8401;52.528;13.340;2024-01-11T05:10:35;-4.10;99.90
16578;DHT22;8401;52.528;13.340;2024-01-11T05:13:01;-4.00;99.90
16578;DHT22;8401;52.528;13.340;2024-01-11T05:15:27;-4.00;99.90
16578;DHT22;8401;52.528;13.340;2024-01-11T05:17:54;-3.90;99.90
16578;DHT22;8401;52.528;13.340;2024-01-11T05:20:20;-3.80;99.90
16578;DHT22;8401;52.528;13.340;2024-01-11T05:22:45;-3.80;99.90
16578;DHT22;8401;52.528;13.340;2024-01-11T05:25:12;-3.80;99.90
16578;DHT22;8401;52.528;13.340;2024-01-11T05:27:38;-3.70;99.90
16578;DHT22;8401;52.528;13.340;2024-01-11T05:30:04;-3.60;99.90
16578;DHT22;8401;52.528;13.340;2024-01-11T05:32:29;-3.60;99.90
16578;DHT22;8401;52.528;13.340;2024-01-11T05:34:55;-3.60;99.90
16578;DHT22;8401;52.528;13.340;2024-01-11T05:37:21;-3.50;99.90
16578;DHT22;8401;52.528;13.340;2024-01-11T05:39:46;-3.60;99.90
16578;DHT22;8401;52.528;13.340;2024-01-11T05:42:12;-3.60;99.90
16578;DHT22;8401;52.528;13.340;2024-01-11T05:44:38;-3.70;99.90
16578;DHT22;8401;52.528;13.340;2024-01-11T05:47:04;-3.70;99.90
16578;DHT22;8401;52.528;13.340;2024-01-11T05:49:30;-3.70;99.90
16578;DHT22;8401;52.528;13.340;2024-01-11T05:51:55;-3.60;99.90
16578;DHT22;8401;52.528;13.340;2024-01-11T05:54:21;-3.60;99.90
16578;DHT22;8401;52.528;13.340;2024-01-11T05:56:47;-3.60;99.90
16578;DHT22;8401;52.528;13.340;2024-01-11T05:59:13;-3.60;99.90
16578;DHT22;8401;52.528;13.340;2024-01-11T06:01:42;-3.50;99.90
16578;DHT22;8401;52.528;13.340;2024-01-11T06:04:08;-3.50;99.90
16578;DHT22;8401;52.528;13.340;2024-01-11T06:06:33;-3.50;99.90
16578;DHT22;8401;52.528;13.340;2024-01-11T06:08:59;-3.40;99.90
16578;DHT22;8401;52.528;13.340;2024-01-11T06:11:25;-3.30;99.90
16578;DHT22;8401;52.528;13.340;2024-01-11T06:13:50;-3.20;99.90
16578;DHT22;8401;52.528;13.340;2024-01-11T06:16:16;-3.10;99.90
16578;DHT22;8401;52.528;13.340;2024-01-11T06:18:42;-3.10;99.90
16578;DHT22;8401;52.528;13.340;2024-01-11T06:21:07;-3.20;99.90
16578;DHT22;8401;52.528;13.340;2024-01-11T06:23:33;-3.40;99.90
16578;DHT22;8401;52.528;13.340;2024-01-11T06:25:59;-3.40;99.90
16578;DHT22;8401;52.528;13.340;2024-01-11T06:28:25;-3.30;99.90
16578;DHT22;8401;52.528;13.340;2024-01-11T06:30:50;-3.30;99.90
16578;DHT22;8401;52.528;13.340;2024-01-11T06:33:16;-3.30;99.90
16578;DHT22;8401;52.528;13.340;2024-01-11T06:35:41;-3.30;99.90
16578;DHT22;8401;52.528;13.340;2024-01-11T06:38:07;-3.30;99.90
16578;DHT22;8401;52.528;13.340;2024-01-11T06:40:33;-3.30;99.90
16578;DHT22;8401;52.528;13.340;2024-01-11T06:42:58;-3.20;99.90
16578;DHT22;8401;52.528;13.340;2024-01-11T06:45:24;-3.20;99.90
16578;DHT22;8401;52.528;13.340;2024-01-11T06:47:49;-3.10;99.90
16578;DHT22;8401;52.528;13.340;2024-01-11T06:50:15;-3.10;99.90
16578;DHT22;8401;52.528;13.340;2024-01-11T06:52:41;-3.10;99.90
16578;DHT22;8401;52.528;13.340;2024-01-11T06:55:07;-3.00;99.90
16578;DHT22;8401;52.528;13.340;2024-01-11T06:57:33;-3.00;99.90
16578;DHT22;8401;52.528;13.340;2024-01-11T06:59:59;-3.10;99.90
16578;DHT22;8401;52.528;13.340;2024-01-11T07:02:25;-3.10;99.90
16578;DHT22;8401;52.528;13.340;2024-01-11T07:04:50;-3.10;99.90
16578;DHT22;8401;52.528;13.340;2024-01-11T07:07:16;-3.10;99.90
16578;DHT22;8401;52.528;13.340;2024-01-11T07:09:41;-3.00;99.90
16578;DHT22;8401;52.528;13.340;2024-01-11T07:12:07;-3.00;99.90
16578;DHT22;8401;52.528;13.340;2024-01-11T07:14:33;-3.00;99.90
16578;DHT22;8401;52.528;13.340;2024-01-11T07:16:58;-2.90;99.90
16578;DHT22;8401;52.528;13.340;2024-01-11T07:19:24;-2.80;99.90
16578;DHT22;8401;52.528;13.340;2024-01-11T07:21:49;-2.80;99.90
16578;DHT22;8401;52.528;13.340;2024-01-11T07:24:15;-2.70;99.90
16578;DHT22;8401;52.528;13.340;2024-01-11T07:26:41;-2.70;99.90
16578;DHT22;8401;52.528;13.340;2024-01-11T07:29:07;-2.70;99.90
16578;DHT22;8401;52.528;13.340;2024-01-11T07:31:32;-2.60;99.90
16578;DHT22;8401;52.528;13.340;2024-01-11T07:33:58;-2.70;99.90
16578;DHT22;8401;52.528;13.340;2024-01-11T07:36:24;-2.60;99.90
16578;DHT22;8401;52.528;13.340;2024-01-11T07:38:50;-2.70;99.90
16578;DHT22;8401;52.528;13.340;2024-01-11T07:41:16;-2.70;99.90
16578;DHT22;8401;52.528;13.340;2024-01-11T07:43:42;-2.70;99.90
16578;DHT22;8401;52.528;13.340;2024-01-11T07:46:10;-2.70;99.90
16578;DHT22;8401;52.528;13.340;2024-01-11T07:48:35;-2.60;99.90
16578;DHT22;8401;52.528;13.340;2024-01-11T07:51:01;-2.60;99.90
16578;DHT22;8401;52.528;13.340;2024-01-11T07:53:27;-2.60;99.90
16578;DHT22;8401;52.528;13.340;2024-01-11T07:55:53;-2.70;99.90
16578;DHT22;8401;52.528;13.340;2024-01-11T07:58:19;-2.70;99.90
16578;DHT22;8401;52.528;13.340;2024-01-11T08:00:47;-2.80;99.90
16578;DHT22;8401;52.528;13.340;2024-01-11T08:03:13;-2.70;99.90
16578;DHT22;8401;52.528;13.340;2024-01-11T08:05:38;-2.70;99.90
16578;DHT22;8401;52.528;13.340;2024-01-11T08:08:04;-2.70;99.90
16578;DHT22;8401;52.528;13.340;2024-01-11T08:10:30;-2.60;99.90
16578;DHT22;8401;52.528;13.340;2024-01-11T08:12:56;-2.70;99.90
16578;DHT22;8401;52.528;13.340;2024-01-11T08:15:22;-2.70;99.90
16578;DHT22;8401;52.528;13.340;2024-01-11T08:17:48;-2.60;99.90
16578;DHT22;8401;52.528;13.340;2024-01-11T08:20:14;-2.60;99.90
16578;DHT22;8401;52.528;13.340;2024-01-11T08:22:43;-2.50;99.90
16578;DHT22;8401;52.528;13.340;2024-01-11T08:25:09;-2.50;99.90
16578;DHT22;8401;52.528;13.340;2024-01-11T08:27:35;-2.50;99.90
16578;DHT22;8401;52.528;13.340;2024-01-11T08:30:01;-2.50;99.90
16578;DHT22;8401;52.528;13.340;2024-01-11T08:32:27;-2.50;99.90
16578;DHT22;8401;52.528;13.340;2024-01-11T08:34:54;-2.50;99.90
16578;DHT22;8401;52.528;13.340;2024-01-11T08:37:20;-2.50;99.90
16578;DHT22;8401;52.528;13.340;2024-01-11T08:39:45;-2.60;99.90
16578;DHT22;8401;52.528;13.340;2024-01-11T08:42:12;-2.60;99.90
16578;DHT22;8401;52.528;13.340;2024-01-11T08:44:41;-2.60;99.90
16578;DHT22;8401;52.528;13.340;2024-01-11T08:47:08;-2.60;99.90
16578;DHT22;8401;52.528;13.340;2024-01-11T08:49:36;-2.60;99.90
16578;DHT22;8401;52.528;13.340;2024-01-11T08:52:02;-2.60;99.90
16578;DHT22;8401;52.528;13.340;2024-01-11T08:54:28;-2.60;99.90
16578;DHT22;8401;52.528;13.340;2024-01-11T08:56:53;-2.50;99.90
16578;DHT22;8401;52.528;13.340;2024-01-11T08:59:19;-2.50;99.90
16578;DHT22;8401;52.528;13.340;2024-01-11T09:01:45;-2.40;99.90
16578;DHT22;8401;52.528;13.340;2024-01-11T09:04:10;-2.40;99.90
16578;DHT22;8401;52.528;13.340;2024-01-11T09:06:36;-2.30;99.90
16578;DHT22;8401;52.528;13.340;2024-01-11T09:09:01;-2.30;99.90
16578;DHT22;8401;52.528;13.340;2024-01-11T09:11:27;-2.30;99.90
16578;DHT22;8401;52.528;13.340;2024-01-11T09:13:53;-2.20;99.90
16578;DHT22;8401;52.528;13.340;2024-01-11T09:16:18;-2.20;99.90
16578;DHT22;8401;52.528;13.340;2024-01-11T09:18:45;-2.20;99.90
16578;DHT22;8401;52.528;13.340;2024-01-11T09:21:11;-2.10;99.90
16578;DHT22;8401;52.528;13.340;2024-01-11T09:23:37;-2.00;99.90
16578;DHT22;8401;52.528;13.340;2024-01-11T09:26:03;-2.00;99.90
16578;DHT22;8401;52.528;13.340;2024-01-11T09:28:29;-2.10;99.90
16578;DHT22;8401;52.528;13.340;2024-01-11T09:30:54;-2.10;99.90
16578;DHT22;8401;52.528;13.340;2024-01-11T09:33:25;-2.10;99.90
16578;DHT22;8401;52.528;13.340;2024-01-11T09:35:51;-2.00;99.90
16578;DHT22;8401;52.528;13.340;2024-01-11T09:38:17;-1.90;99.90
16578;DHT22;8401;52.528;13.340;2024-01-11T09:40:42;-2.00;99.90
16578;DHT22;8401;52.528;13.340;2024-01-11T09:43:09;-2.00;99.90
16578;DHT22;8401;52.528;13.340;2024-01-11T09:45:36;-1.90;99.90
16578;DHT22;8401;52.528;13.340;2024-01-11T09:48:05;-1.90;99.90
16578;DHT22;8401;52.528;13.340;2024-01-11T09:50:32;-2.00;99.90
16578;DHT22;8401;52.528;13.340;2024-01-11T09:52:58;-2.00;99.90
16578;DHT22;8401;52.528;13.340;2024-01-11T09:55:28;-2.00;99.90
16578;DHT22;8401;52.528;13.340;2024-01-11T09:57:56;-2.00;99.90
16578;DHT22;8401;52.528;13.340;2024-01-11T10:00:25;-2.00;99.90
16578;DHT22;8401;52.528;13.340;2024-01-11T10:02:52;-2.00;99.90
16578;DHT22;8401;52.528;13.340;2024-01-11T10:05:18;-2.10;99.90
16578;DHT22;8401;52.528;13.340;2024-01-11T10:07:44;-2.10;99.90
16578;DHT22;8401;52.528;13.340;2024-01-11T10:10:11;-2.00;99.90
16578;DHT22;8401;52.528;13.340;2024-01-11T10:12:39;-1.90;99.90
16578;DHT22;8401;52.528;13.340;2024-01-11T10:15:09;-2.00;99.90
16578;DHT22;8401;52.528;13.340;2024-01-11T10:17:45;-1.90;99.90
16578;DHT22;8401;52.528;13.340;2024-01-11T10:20:15;-1.90;99.90
16578;DHT22;8401;52.528;13.340;2024-01-11T10:22:41;-1.90;99.90
16578;DHT22;8401;52.528;13.340;2024-01-11T10:25:14;-1.80;99.90
16578;DHT22;8401;52.528;13.340;2024-01-11T10:27:42;-1.90;99.90
16578;DHT22;8401;52.528;13.340;2024-01-11T10:30:12;-1.80;99.90
16578;DHT22;8401;52.528;13.340;2024-01-11T10:32:39;-1.90;99.90
16578;DHT22;8401;52.528;13.340;2024-01-11T10:35:08;-1.90;99.90
16578;DHT22;8401;52.528;13.340;2024-01-11T10:37:37;-1.90;99.90
16578;DHT22;8401;52.528;13.340;2024-01-11T10:40:08;-1.80;99.90
16578;DHT22;8401;52.528;13.340;2024-01-11T10:42:45;-1.90;99.90
16578;DHT22;8401;52.528;13.340;2024-01-11T10:45:16;-2.00;99.90
16578;DHT22;8401;52.528;13.340;2024-01-11T10:50:43;-2.00;99.90
16578;DHT22;8401;52.528;13.340;2024-01-11T10:53:31;-1.90;99.90
16578;DHT22;8401;52.528;13.340;2024-01-11T10:55:59;-1.80;99.90
16578;DHT22;8401;52.528;13.340;2024-01-11T10:58:26;-1.80;99.90
16578;DHT22;8401;52.528;13.340;2024-01-11T11:00:53;-1.70;99.90
16578;DHT22;8401;52.528;13.340;2024-01-11T11:03:23;-1.60;99.90
16578;DHT22;8401;52.528;13.340;2024-01-11T11:05:50;-1.60;99.90
16578;DHT22;8401;52.528;13.340;2024-01-11T11:08:17;-1.60;99.90
16578;DHT22;8401;52.528;13.340;2024-01-11T11:10:44;-1.70;99.90
16578;DHT22;8401;52.528;13.340;2024-01-11T11:13:13;-1.60;99.90
16578;DHT22;8401;52.528;13.340;2024-01-11T11:15:42;-1.60;99.90
16578;DHT22;8401;52.528;13.340;2024-01-11T11:18:12;-1.60;99.90
16578;DHT22;8401;52.528;13.340;2024-01-11T11:20:42;-1.60;99.90
16578;DHT22;8401;52.528;13.340;2024-01-11T11:23:09;-1.50;99.90
16578;DHT22;8401;52.528;13.340;2024-01-11T11:25:36;-1.40;99.90
16578;DHT22;8401;52.528;13.340;2024-01-11T11:28:03;-1.30;99.90
16578;DHT22;8401;52.528;13.340;2024-01-11T11:30:38;-1.20;99.90
16578;DHT22;8401;52.528;13.340;2024-01-11T11:33:20;-1.20;99.90
16578;DHT22;8401;52.528;13.340;2024-01-11T11:35:47;-1.20;99.90
16578;DHT22;8401;52.528;13.340;2024-01-11T11:38:21;-1.10;99.90
16578;DHT22;8401;52.528;13.340;2024-01-11T11:40:47;-1.10;99.90
16578;DHT22;8401;52.528;13.340;2024-01-11T11:43:16;-1.00;99.90
16578;DHT22;8401;52.528;13.340;2024-01-11T11:45:43;-1.00;99.90
16578;DHT22;8401;52.528;13.340;2024-01-11T11:51:15;-1.10;99.90
16578;DHT22;8401;52.528;13.340;2024-01-11T11:53:42;-0.90;99.90
16578;DHT22;8401;52.528;13.340;2024-01-11T11:56:09;-0.90;99.90
16578;DHT22;8401;52.528;13.340;2024-01-11T11:58:36;-1.00;99.90
16578;DHT22;8401;52.528;13.340;2024-01-11T12:01:02;-0.90;99.90
16578;DHT22;8401;52.528;13.340;2024-01-11T12:03:41;-0.90;99.90
16578;DHT22;8401;52.528;13.340;2024-01-11T12:06:08;-0.90;99.90
16578;DHT22;8401;52.528;13.340;2024-01-11T12:08:36;-1.00;99.90
16578;DHT22;8401;52.528;13.340;2024-01-11T12:11:02;-0.90;99.90
16578;DHT22;8401;52.528;13.340;2024-01-11T12:13:28;-0.80;99.90
16578;DHT22;8401;52.528;13.340;2024-01-11T12:15:54;-0.90;99.90
16578;DHT22;8401;52.528;13.340;2024-01-11T12:18:21;-0.80;99.90
16578;DHT22;8401;52.528;13.340;2024-01-11T12:20:46;-0.80;99.90
16578;DHT22;8401;52.528;13.340;2024-01-11T12:23:12;-0.80;99.90
16578;DHT22;8401;52.528;13.340;2024-01-11T12:25:41;-0.80;99.90
16578;DHT22;8401;52.528;13.340;2024-01-11T12:28:07;-0.70;99.90
16578;DHT22;8401;52.528;13.340;2024-01-11T12:30:33;-0.60;99.90
16578;DHT22;8401;52.528;13.340;2024-01-11T12:32:59;-0.60;99.90
16578;DHT22;8401;52.528;13.340;2024-01-11T12:35:27;-0.60;99.90
16578;DHT22;8401;52.528;13.340;2024-01-11T12:37:58;-0.60;99.90
16578;DHT22;8401;52.528;13.340;2024-01-11T12:40:24;-0.60;99.90
16578;DHT22;8401;52.528;13.340;2024-01-11T12:42:52;-0.60;99.90
16578;DHT22;8401;52.528;13.340;2024-01-11T12:45:21;-0.60;99.90
16578;DHT22;8401;52.528;13.340;2024-01-11T12:47:48;-0.60;99.90
16578;DHT22;8401;52.528;13.340;2024-01-11T12:50:14;-0.60;99.90
16578;DHT22;8401;52.528;13.340;2024-01-11T12:52:40;-0.60;99.90
16578;DHT22;8401;52.528;13.340;2024-01-11T12:55:08;-0.60;99.90
16578;DHT22;8401;52.528;13.340;2024-01-11T12:57:34;-0.60;99.90
16578;DHT22;8401;52.528;13.340;2024-01-11T13:00:13;-0.60;99.90
16578;DHT22;8401;52.528;13.340;2024-01-11T13:02:39;-0.60;99.90
16578;DHT22;8401;52.528;13.340;2024-01-11T13:05:06;-0.60;99.90
16578;DHT22;8401;52.528;13.340;2024-01-11T13:07:33;-0.60;99.90
16578;DHT22;8401;52.528;13.340;2024-01-11T13:09:59;-0.70;99.90
16578;DHT22;8401;52.528;13.340;2024-01-11T13:12:25;-0.70;99.90
16578;DHT22;8401;52.528;13.340;2024-01-11T13:14:50;-0.60;99.90
16578;DHT22;8401;52.528;13.340;2024-01-11T13:17:18;-0.60;99.90
16578;DHT22;8401;52.528;13.340;2024-01-11T13:19:44;-0.60;99.90
16578;DHT22;8401;52.528;13.340;2024-01-11T13:22:10;-0.60;99.90
16578;DHT22;8401;52.528;13.340;2024-01-11T13:24:36;-0.60;99.90
16578;DHT22;8401;52.528;13.340;2024-01-11T13:27:01;-0.60;99.90
16578;DHT22;8401;52.528;13.340;2024-01-11T13:29:27;-0.60;99.90
16578;DHT22;8401;52.528;13.340;2024-01-11T13:31:53;-0.60;99.90
16578;DHT22;8401;52.528;13.340;2024-01-11T13:34:18;-0.50;99.90
16578;DHT22;8401;52.528;13.340;2024-01-11T13:36:45;-0.50;99.90
16578;DHT22;8401;52.528;13.340;2024-01-11T13:39:10;-0.50;99.90
16578;DHT22;8401;52.528;13.340;2024-01-11T13:41:36;-0.50;99.90
16578;DHT22;8401;52.528;13.340;2024-01-11T13:44:02;-0.50;99.90
16578;DHT22;8401;52.528;13.340;2024-01-11T13:46:27;-0.50;99.90
16578;DHT22;8401;52.528;13.340;2024-01-11T13:48:53;-0.50;99.90
16578;DHT22;8401;52.528;13.340;2024-01-11T13:51:19;-0.50;99.90
16578;DHT22;8401;52.528;13.340;2024-01-11T13:53:44;-0.40;99.90
16578;DHT22;8401;52.528;13.340;2024-01-11T13:56:11;-0.50;99.90
16578;DHT22;8401;52.528;13.340;2024-01-11T13:58:37;-0.40;99.90
16578;DHT22;8401;52.528;13.340;2024-01-11T14:01:03;-0.40;99.90
16578;DHT22;8401;52.528;13.340;2024-01-11T14:03:29;-0.50;99.90
16578;DHT22;8401;52.528;13.340;2024-01-11T14:05:55;-0.50;99.90
16578;DHT22;8401;52.528;13.340;2024-01-11T14:08:20;-0.50;99.90
16578;DHT22;8401;52.528;13.340;2024-01-11T14:10:46;-0.60;99.90
16578;DHT22;8401;52.528;13.340;2024-01-11T14:13:12;-0.50;99.90
16578;DHT22;8401;52.528;13.340;2024-01-11T14:15:37;-0.50;99.90
16578;DHT22;8401;52.528;13.340;2024-01-11T14:18:03;-0.50;99.90
16578;DHT22;8401;52.528;13.340;2024-01-11T14:20:29;-0.50;99.90
16578;DHT22;8401;52.528;13.340;2024-01-11T14:22:56;-0.60;99.90
16578;DHT22;8401;52.528;13.340;2024-01-11T14:25:23;-0.50;99.90
16578;DHT22;8401;52.528;13.340;2024-01-11T14:27:52;-0.50;99.90
16578;DHT22;8401;52.528;13.340;2024-01-11T14:30:22;-0.50;99.90
16578;DHT22;8401;52.528;13.340;2024-01-11T14:32:48;-0.50;99.90
16578;DHT22;8401;52.528;13.340;2024-01-11T14:35:14;-0.60;99.90
16578;DHT22;8401;52.528;13.340;2024-01-11T14:37:40;-0.60;99.90
16578;DHT22;8401;52.528;13.340;2024-01-11T14:40:07;-0.50;99.90
16578;DHT22;8401;52.528;13.340;2024-01-11T14:42:33;-0.60;99.90
16578;DHT22;8401;52.528;13.340;2024-01-11T14:44:59;-0.60;99.90
16578;DHT22;8401;52.528;13.340;2024-01-11T14:47:24;-0.60;99.90
16578;DHT22;8401;52.528;13.340;2024-01-11T14:49:50;-0.60;99.90
16578;DHT22;8401;52.528;13.340;2024-01-11T14:52:17;-0.70;99.90
16578;DHT22;8401;52.528;13.340;2024-01-11T14:54:44;-0.60;99.90
16578;DHT22;8401;52.528;13.340;2024-01-11T14:57:10;-0.60;99.90
16578;DHT22;8401;52.528;13.340;2024-01-11T14:59:36;-0.60;99.90
16578;DHT22;8401;52.528;13.340;2024-01-11T15:02:01;-0.50;99.90
16578;DHT22;8401;52.528;13.340;2024-01-11T15:04:28;-0.60;99.90
16578;DHT22;8401;52.528;13.340;2024-01-11T15:06:53;-0.50;99.90
16578;DHT22;8401;52.528;13.340;2024-01-11T15:09:19;-0.50;99.90
16578;DHT22;8401;52.528;13.340;2024-01-11T15:11:45;-0.50;99.90
16578;DHT22;8401;52.528;13.340;2024-01-11T15:14:10;-0.40;99.90
16578;DHT22;8401;52.528;13.340;2024-01-11T15:16:37;-0.40;99.90
16578;DHT22;8401;52.528;13.340;2024-01-11T15:19:03;-0.40;99.90
16578;DHT22;8401;52.528;13.340;2024-01-11T15:21:29;-0.30;99.90
16578;DHT22;8401;52.528;13.340;2024-01-11T15:23:56;-0.30;99.90
16578;DHT22;8401;52.528;13.340;2024-01-11T15:26:22;-0.30;99.90
16578;DHT22;8401;52.528;13.340;2024-01-11T15:28:48;-0.30;99.90
16578;DHT22;8401;52.528;13.340;2024-01-11T15:31:13;-0.30;99.90